KOGA/OGA METAR and TAF weather

Enter ICAO airport designator
Station Type Date Time Source
KOGA METAR 2020/07/14 06:55 UTC NOAA

KOGA 140655Z AUTO 00000KT 10SM CLR 19/16 A2986 RMK AO2 T01890163 403520173


Station Type Date Time Source
KOGA Decoded METAR 2020/07/14 06:55 UTC NOAA

Ogallala, Searle Field Airport, NE, United States (KOGA) 41-07-11N 101-46-08W
Jul 14, 2020 - 02:55 AM EDT / 2020.07.14 0655 UTC
Wind: Calm:0
Visibility: 10 mile(s):0
Sky conditions: clear
Temperature: 66.0 F (18.9 C)
Dew Point: 61.3 F (16.3 C)
Relative Humidity: 84%
Pressure (altimeter): 29.86 in. Hg (1011 hPa)
ob: KOGA 140655Z AUTO 00000KT 10SM CLR 19/16 A2986 RMK AO2 T01890163 403520173
cycle: 7

Station Type Date Time Source
KOGA TAF UTC NOAA

Error!

Example: see airport list